createdAt,value
2023-01-17T00:00:35.860Z,9.26
2023-01-17T00:03:02.322Z,9.38
2023-01-17T00:05:28.741Z,9.29
2023-01-17T00:07:55.128Z,9.46
2023-01-17T00:10:21.470Z,9.41
2023-01-17T00:12:47.881Z,9.28
2023-01-17T00:15:14.270Z,9.23
2023-01-17T00:17:40.611Z,9.02
2023-01-17T00:20:06.992Z,9.07
2023-01-17T00:22:33.379Z,9.13
2023-01-17T00:24:59.721Z,9.15
2023-01-17T00:27:26.059Z,9.10
2023-01-17T00:29:52.394Z,9.04
2023-01-17T00:32:18.719Z,8.71
2023-01-17T00:34:45.093Z,8.85
2023-01-17T00:37:11.468Z,8.79
2023-01-17T00:39:37.814Z,8.96
2023-01-17T00:42:04.176Z,9.01
2023-01-17T00:44:30.558Z,8.89
2023-01-17T00:46:57.011Z,8.62
2023-01-17T00:49:23.389Z,8.71
2023-01-17T00:51:49.779Z,9.13
2023-01-17T00:54:18.128Z,9.13
2023-01-17T00:56:45.332Z,9.16
2023-01-17T00:59:11.678Z,9.24
2023-01-17T01:01:38.129Z,8.94
2023-01-17T01:04:04.587Z,9.14
2023-01-17T01:06:30.964Z,9.01
2023-01-17T01:08:57.360Z,9.27
2023-01-17T01:11:23.738Z,9.16
2023-01-17T01:13:50.093Z,9.07
2023-01-17T01:16:16.482Z,9.08
2023-01-17T01:18:42.826Z,8.94
2023-01-17T01:21:09.162Z,9.28
2023-01-17T01:23:35.488Z,9.55
2023-01-17T01:26:01.861Z,9.24
2023-01-17T01:28:28.203Z,9.50
2023-01-17T01:30:54.576Z,9.66
2023-01-17T01:33:20.973Z,9.45
2023-01-17T01:35:47.379Z,9.40
2023-01-17T01:38:13.722Z,9.19
2023-01-17T01:40:40.062Z,9.15
2023-01-17T01:43:06.440Z,9.02
2023-01-17T01:45:32.821Z,8.87
2023-01-17T01:47:59.234Z,9.32
2023-01-17T01:50:25.574Z,9.48
2023-01-17T01:52:51.961Z,9.08
2023-01-17T01:55:18.339Z,9.57
2023-01-17T01:57:44.719Z,9.47
2023-01-17T02:00:11.112Z,9.24
2023-01-17T02:02:37.473Z,9.20
2023-01-17T02:05:04.842Z,9.61
2023-01-17T02:07:31.335Z,9.62
2023-01-17T02:09:57.719Z,9.63
2023-01-17T02:12:24.054Z,9.58
2023-01-17T02:14:50.382Z,9.65
2023-01-17T02:17:16.771Z,9.70
2023-01-17T02:19:43.140Z,9.77
2023-01-17T02:22:09.511Z,9.31
2023-01-17T02:24:35.871Z,9.43
2023-01-17T02:27:02.222Z,9.51
2023-01-17T02:29:28.553Z,9.66
2023-01-17T02:31:54.939Z,9.69
2023-01-17T02:34:21.319Z,9.61
2023-01-17T02:36:47.660Z,9.78
2023-01-17T02:39:14.041Z,9.87
2023-01-17T02:41:40.421Z,10.01
2023-01-17T02:44:06.879Z,9.97
2023-01-17T02:46:33.248Z,9.82
2023-01-17T02:48:59.629Z,10.04
2023-01-17T02:51:26.015Z,9.95
2023-01-17T02:53:52.398Z,9.77
2023-01-17T02:56:18.749Z,10.00
2023-01-17T02:58:45.090Z,10.03
2023-01-17T03:01:11.546Z,9.89
2023-01-17T03:03:37.934Z,9.84
2023-01-17T03:06:04.337Z,9.66
2023-01-17T03:08:30.741Z,9.52
2023-01-17T03:10:57.087Z,9.77
2023-01-17T03:13:23.439Z,9.60
2023-01-17T03:15:49.772Z,9.62
2023-01-17T03:18:16.156Z,9.91
2023-01-17T03:20:43.653Z,9.66
2023-01-17T03:23:09.995Z,9.55
2023-01-17T03:25:36.342Z,9.83
2023-01-17T03:28:02.669Z,10.00
2023-01-17T03:30:29.091Z,9.97
2023-01-17T03:32:55.457Z,10.07
2023-01-17T03:35:21.808Z,10.22
2023-01-17T03:37:48.196Z,10.15
2023-01-17T03:40:14.578Z,10.08
2023-01-17T03:42:40.967Z,10.12
2023-01-17T03:45:07.356Z,10.06
2023-01-17T03:47:33.769Z,10.32
2023-01-17T03:50:00.174Z,10.31
2023-01-17T03:52:26.521Z,10.34
2023-01-17T03:54:52.857Z,10.30
2023-01-17T03:57:19.194Z,10.35
2023-01-17T03:59:45.560Z,10.28
2023-01-17T04:02:12.029Z,10.38
2023-01-17T04:04:38.498Z,10.25
2023-01-17T04:07:04.916Z,10.20
2023-01-17T04:09:31.295Z,10.27
2023-01-17T04:11:57.703Z,10.13
2023-01-17T04:14:24.111Z,10.21
2023-01-17T04:16:50.517Z,10.08
2023-01-17T04:19:16.916Z,10.05
2023-01-17T04:21:43.272Z,9.85
2023-01-17T04:24:09.601Z,9.95
2023-01-17T04:26:35.989Z,10.02
2023-01-17T04:29:02.333Z,10.00
2023-01-17T04:31:28.687Z,9.92
2023-01-17T04:33:55.036Z,10.09
2023-01-17T04:36:21.418Z,10.10
2023-01-17T04:38:47.837Z,10.16
2023-01-17T04:41:14.243Z,10.07
2023-01-17T04:43:40.633Z,9.96
2023-01-17T04:46:07.007Z,9.89
2023-01-17T04:48:33.374Z,9.89
2023-01-17T04:50:59.744Z,9.71
2023-01-17T04:53:26.129Z,9.58
2023-01-17T04:55:52.512Z,9.39
2023-01-17T04:58:18.912Z,9.55
2023-01-17T05:00:45.264Z,9.34
2023-01-17T05:03:11.614Z,9.47
2023-01-17T05:05:37.955Z,9.58
2023-01-17T05:08:04.284Z,9.30
2023-01-17T05:10:30.670Z,9.45
2023-01-17T05:12:57.040Z,9.25
2023-01-17T05:15:23.427Z,9.36
2023-01-17T05:17:49.774Z,9.33
2023-01-17T05:20:16.112Z,9.48
2023-01-17T05:22:42.489Z,9.58
2023-01-17T05:25:08.873Z,9.41
2023-01-17T05:27:35.231Z,9.51
2023-01-17T05:30:01.588Z,9.33
2023-01-17T05:32:27.963Z,9.16
2023-01-17T05:34:54.336Z,9.08
2023-01-17T05:37:20.678Z,8.92
2023-01-17T05:39:47.016Z,8.95
2023-01-17T05:42:13.388Z,8.34
2023-01-17T05:44:39.740Z,7.81
2023-01-17T05:47:06.123Z,7.62
2023-01-17T05:49:32.507Z,7.65
2023-01-17T05:51:58.879Z,7.69
2023-01-17T05:54:25.257Z,7.66
2023-01-17T05:56:51.653Z,7.29
2023-01-17T05:59:28.581Z,7.43
2023-01-17T06:02:02.477Z,6.95
2023-01-17T06:04:28.886Z,6.99
2023-01-17T06:06:55.292Z,7.26
2023-01-17T06:09:21.679Z,7.30
2023-01-17T06:11:48.065Z,6.54
2023-01-17T06:14:14.417Z,6.91
2023-01-17T06:16:40.764Z,7.10
2023-01-17T06:19:07.143Z,7.18
2023-01-17T06:21:33.525Z,7.05
2023-01-17T06:23:59.923Z,7.18
2023-01-17T06:26:26.440Z,7.58
2023-01-17T06:28:52.804Z,7.67
2023-01-17T06:31:19.226Z,7.88
2023-01-17T06:33:45.691Z,8.37
2023-01-17T06:36:12.079Z,8.44
2023-01-17T06:38:38.485Z,8.40
2023-01-17T06:41:04.875Z,8.68
2023-01-17T06:43:31.280Z,8.76
2023-01-17T06:45:57.679Z,8.88
2023-01-17T06:48:24.069Z,8.42
2023-01-17T06:50:50.419Z,8.49
2023-01-17T06:53:16.791Z,8.76
2023-01-17T06:55:43.185Z,8.48
2023-01-17T06:58:09.584Z,8.26
2023-01-17T07:00:36.492Z,8.37
2023-01-17T07:03:03.915Z,8.00
2023-01-17T07:05:30.298Z,7.88
2023-01-17T07:07:56.685Z,8.29
2023-01-17T07:10:23.026Z,8.37
2023-01-17T07:12:49.373Z,7.99
2023-01-17T07:15:15.720Z,8.00
2023-01-17T07:17:42.098Z,8.09
2023-01-17T07:20:08.490Z,7.94
2023-01-17T07:22:34.842Z,7.89
2023-01-17T07:25:01.227Z,7.51
2023-01-17T07:27:27.584Z,7.77
2023-01-17T07:29:54.334Z,7.94
2023-01-17T07:32:20.791Z,8.09
2023-01-17T07:34:47.130Z,8.06
2023-01-17T07:37:15.221Z,7.90
2023-01-17T07:39:41.874Z,8.06
2023-01-17T07:42:08.226Z,7.79
2023-01-17T07:44:34.564Z,7.82
2023-01-17T07:47:00.905Z,7.80
2023-01-17T07:49:27.286Z,7.45
2023-01-17T07:51:53.634Z,7.06
2023-01-17T07:54:20.015Z,7.01
2023-01-17T07:56:46.399Z,7.04
2023-01-17T07:59:12.755Z,7.30
2023-01-17T08:01:39.287Z,7.00
2023-01-17T08:04:05.706Z,7.49
2023-01-17T08:06:32.105Z,7.60
2023-01-17T08:08:58.439Z,7.77
2023-01-17T08:11:24.825Z,8.01
2023-01-17T08:13:51.173Z,8.29
2023-01-17T08:16:17.602Z,8.47
2023-01-17T08:18:43.962Z,8.61
2023-01-17T08:21:10.341Z,8.49
2023-01-17T08:23:36.739Z,8.67
2023-01-17T08:26:03.121Z,8.86
2023-01-17T08:28:29.503Z,8.85
2023-01-17T08:30:55.889Z,8.70
2023-01-17T08:33:22.236Z,8.86
2023-01-17T08:35:48.578Z,9.10
2023-01-17T08:38:14.953Z,9.35
2023-01-17T08:40:42.788Z,9.24
2023-01-17T08:43:09.510Z,9.36
2023-01-17T08:45:35.937Z,9.37
2023-01-17T08:48:02.340Z,9.45
2023-01-17T08:50:28.707Z,9.66
2023-01-17T08:52:55.062Z,9.51
2023-01-17T08:55:21.415Z,9.68
2023-01-17T08:57:47.953Z,9.60
2023-01-17T09:00:14.351Z,9.55
2023-01-17T09:02:40.754Z,9.75
2023-01-17T09:05:07.114Z,9.94
2023-01-17T09:07:33.505Z,10.00
2023-01-17T09:09:59.901Z,9.73
2023-01-17T09:12:26.292Z,9.68
2023-01-17T09:14:52.687Z,10.07
2023-01-17T09:17:19.122Z,10.00
2023-01-17T09:19:47.609Z,10.01
2023-01-17T09:22:14.024Z,9.76
2023-01-17T09:24:40.363Z,9.91
2023-01-17T09:27:06.723Z,9.88
2023-01-17T09:29:33.074Z,10.02
2023-01-17T09:31:59.517Z,10.04
2023-01-17T09:34:25.906Z,10.06
2023-01-17T09:36:52.298Z,9.97
2023-01-17T09:39:18.702Z,9.97
2023-01-17T09:41:45.101Z,10.00
2023-01-17T09:44:11.450Z,9.95
2023-01-17T09:46:37.831Z,10.07
2023-01-17T09:49:04.212Z,10.28
2023-01-17T09:51:30.601Z,9.97
2023-01-17T09:53:56.942Z,10.20
2023-01-17T09:56:23.289Z,10.15
2023-01-17T09:58:49.631Z,10.27
2023-01-17T10:01:16.105Z,10.10
2023-01-17T10:03:42.648Z,10.37
2023-01-17T10:06:09.029Z,10.19
2023-01-17T10:08:35.452Z,9.35
2023-01-17T10:11:01.795Z,9.42
2023-01-17T10:13:28.146Z,9.69
2023-01-17T10:15:54.543Z,9.67
2023-01-17T10:18:29.538Z,9.70
2023-01-17T10:20:56.564Z,9.75
2023-01-17T10:23:22.920Z,9.90
2023-01-17T10:25:49.320Z,9.61
2023-01-17T10:28:15.670Z,9.80
2023-01-17T10:30:42.091Z,9.90
2023-01-17T10:33:08.461Z,9.80
2023-01-17T10:35:34.838Z,9.85
2023-01-17T10:38:01.236Z,10.00
2023-01-17T10:40:27.582Z,10.02
2023-01-17T10:42:53.932Z,9.99
2023-01-17T10:45:20.262Z,9.99
2023-01-17T10:47:46.609Z,9.73
2023-01-17T10:50:12.959Z,9.82
2023-01-17T10:52:39.345Z,10.09
2023-01-17T10:55:05.703Z,10.06
2023-01-17T10:57:32.086Z,9.94
2023-01-17T10:59:58.500Z,10.02
2023-01-17T11:02:24.942Z,9.93
2023-01-17T11:04:51.389Z,10.05
2023-01-17T11:07:17.775Z,10.20
2023-01-17T11:09:44.165Z,10.06
2023-01-17T11:12:10.515Z,10.21
2023-01-17T11:14:36.845Z,9.96
2023-01-17T11:17:03.241Z,9.99
2023-01-17T11:19:29.634Z,9.66
2023-01-17T11:21:56.057Z,9.81
2023-01-17T11:24:22.467Z,10.00
2023-01-17T11:26:48.837Z,9.81
2023-01-17T11:29:15.221Z,9.85
2023-01-17T11:31:41.576Z,10.12
2023-01-17T11:34:07.925Z,10.06
2023-01-17T11:36:34.271Z,10.09
2023-01-17T11:39:00.750Z,10.09
2023-01-17T11:41:27.086Z,10.02
2023-01-17T11:43:53.442Z,9.88
2023-01-17T11:46:19.808Z,10.10
2023-01-17T11:48:46.175Z,10.05
2023-01-17T11:51:12.521Z,9.87
2023-01-17T11:53:38.871Z,10.06
2023-01-17T11:56:05.203Z,10.00
2023-01-17T11:58:31.596Z,10.31
2023-01-17T12:00:57.959Z,10.53
2023-01-17T12:03:24.365Z,10.43
2023-01-17T12:05:50.726Z,10.57
2023-01-17T12:08:17.100Z,10.56
2023-01-17T12:10:43.489Z,10.38
2023-01-17T12:13:09.890Z,10.39
2023-01-17T12:15:36.403Z,10.08
2023-01-17T12:18:02.860Z,9.99
2023-01-17T12:20:29.263Z,10.04
2023-01-17T12:22:55.658Z,10.13
2023-01-17T12:25:22.027Z,10.15
2023-01-17T12:27:48.428Z,10.12
2023-01-17T12:30:14.893Z,10.02
2023-01-17T12:32:41.431Z,10.09
2023-01-17T12:35:07.827Z,10.20
2023-01-17T12:37:34.175Z,10.21
2023-01-17T12:40:00.521Z,10.20
2023-01-17T12:42:26.899Z,10.15
2023-01-17T12:44:53.291Z,9.95
2023-01-17T12:47:19.628Z,9.99
2023-01-17T12:49:46.002Z,10.08
2023-01-17T12:52:12.386Z,10.09
2023-01-17T12:54:38.737Z,10.30
2023-01-17T12:57:05.110Z,10.23
2023-01-17T12:59:31.517Z,10.28
2023-01-17T13:01:58.204Z,10.05
2023-01-17T13:04:24.742Z,9.86
2023-01-17T13:06:51.088Z,10.02
2023-01-17T13:09:17.429Z,10.13
2023-01-17T13:11:43.768Z,10.01
2023-01-17T13:14:10.135Z,10.13
2023-01-17T13:16:36.552Z,10.20
2023-01-17T13:19:02.947Z,10.12
2023-01-17T13:21:29.297Z,10.22
2023-01-17T13:23:55.646Z,10.22
2023-01-17T13:26:22.025Z,10.32
2023-01-17T13:28:48.404Z,10.36
2023-01-17T13:31:14.823Z,10.19
2023-01-17T13:33:41.223Z,10.03
2023-01-17T13:36:07.569Z,10.35
2023-01-17T13:38:33.944Z,10.22
2023-01-17T13:41:00.331Z,10.41
2023-01-17T13:43:26.672Z,10.35
2023-01-17T13:45:53.073Z,10.36
2023-01-17T13:48:19.570Z,10.21
2023-01-17T13:50:45.929Z,10.04
2023-01-17T13:53:12.338Z,10.00
2023-01-17T13:55:38.736Z,10.18
2023-01-17T13:58:05.084Z,9.94
2023-01-17T14:00:31.412Z,10.01
2023-01-17T14:02:57.786Z,10.06
2023-01-17T14:05:24.181Z,10.26
2023-01-17T14:07:50.527Z,10.37
2023-01-17T14:10:16.868Z,10.65
2023-01-17T14:12:43.214Z,10.78
2023-01-17T14:15:09.587Z,10.54
2023-01-17T14:17:35.975Z,10.69
2023-01-17T14:20:02.359Z,10.82
2023-01-17T14:22:28.706Z,10.88
2023-01-17T14:24:55.083Z,10.94
2023-01-17T14:27:21.436Z,10.45
2023-01-17T14:29:47.825Z,10.71
2023-01-17T14:32:14.220Z,10.82
2023-01-17T14:34:40.611Z,10.79
2023-01-17T14:37:06.954Z,10.80
2023-01-17T14:39:33.306Z,10.75
2023-01-17T14:41:59.633Z,10.69
2023-01-17T14:44:25.982Z,10.59
2023-01-17T14:46:52.372Z,10.37
2023-01-17T14:49:18.778Z,10.26
2023-01-17T14:51:45.170Z,10.44
2023-01-17T14:54:11.577Z,10.34
2023-01-17T14:56:37.951Z,10.63
2023-01-17T14:59:04.349Z,10.61
2023-01-17T15:01:30.819Z,10.73
2023-01-17T15:03:57.200Z,10.70
2023-01-17T15:06:23.594Z,10.63
2023-01-17T15:08:49.942Z,10.57
2023-01-17T15:11:16.293Z,10.41
2023-01-17T15:13:45.146Z,10.46
2023-01-17T15:16:11.696Z,10.40
2023-01-17T15:18:38.096Z,10.51
2023-01-17T15:21:04.458Z,10.57
2023-01-17T15:23:30.864Z,10.42
2023-01-17T15:25:57.210Z,10.20
2023-01-17T15:28:23.556Z,10.55
2023-01-17T15:30:52.121Z,10.62
2023-01-17T15:33:18.557Z,10.58
2023-01-17T15:35:44.930Z,10.64
2023-01-17T15:38:13.829Z,10.52
2023-01-17T15:40:40.301Z,10.62
2023-01-17T15:43:06.715Z,10.74
2023-01-17T15:45:33.098Z,10.61
2023-01-17T15:47:59.451Z,10.58
2023-01-17T15:50:25.788Z,10.60
2023-01-17T15:52:52.119Z,10.67
2023-01-17T15:55:18.442Z,10.46
2023-01-17T15:57:44.823Z,10.85
2023-01-17T16:00:11.204Z,10.85
2023-01-17T16:02:37.860Z,10.32
2023-01-17T16:05:04.543Z,10.34
2023-01-17T16:07:30.896Z,10.35
2023-01-17T16:09:57.302Z,10.28
2023-01-17T16:12:23.651Z,10.46
2023-01-17T16:15:10.476Z,10.76
2023-01-17T16:17:36.376Z,10.90
2023-01-17T16:20:02.770Z,10.77
2023-01-17T16:22:29.157Z,10.33
2023-01-17T16:24:55.549Z,10.23
2023-01-17T16:27:21.920Z,10.19
2023-01-17T16:29:48.319Z,10.08
2023-01-17T16:32:14.712Z,10.47
2023-01-17T16:34:41.112Z,10.46
2023-01-17T16:37:07.461Z,10.47
2023-01-17T16:39:33.840Z,10.52
2023-01-17T16:42:00.262Z,10.38
2023-01-17T16:44:26.617Z,10.53
2023-01-17T16:46:52.962Z,10.39
2023-01-17T16:49:19.349Z,10.29
2023-01-17T16:51:45.743Z,10.26
2023-01-17T16:54:12.132Z,10.06
2023-01-17T16:56:38.528Z,10.23
2023-01-17T16:59:04.887Z,10.40
2023-01-17T17:01:31.341Z,10.43
2023-01-17T17:03:57.806Z,10.37
2023-01-17T17:06:24.164Z,10.16
2023-01-17T17:08:50.540Z,10.26
2023-01-17T17:11:16.920Z,10.36
2023-01-17T17:13:43.308Z,10.25
2023-01-17T17:16:09.810Z,10.21
2023-01-17T17:18:36.246Z,10.57
2023-01-17T17:21:02.637Z,10.50
2023-01-17T17:23:29.233Z,10.38
2023-01-17T17:25:55.612Z,10.63
2023-01-17T17:28:21.967Z,10.67
2023-01-17T17:30:48.362Z,10.70
2023-01-17T17:33:14.762Z,10.71
2023-01-17T17:35:41.161Z,10.77
2023-01-17T17:38:07.542Z,10.99
2023-01-17T17:40:33.934Z,11.07
2023-01-17T17:43:00.278Z,11.02
2023-01-17T17:45:26.660Z,10.71
2023-01-17T17:47:53.256Z,10.90
2023-01-17T17:50:19.817Z,10.94
2023-01-17T17:52:46.159Z,10.92
2023-01-17T17:55:12.565Z,10.99
2023-01-17T17:57:38.915Z,11.08
2023-01-17T18:00:05.312Z,10.90
2023-01-17T18:02:31.697Z,10.86
2023-01-17T18:04:58.191Z,11.08
2023-01-17T18:07:24.601Z,11.04
2023-01-17T18:09:50.984Z,10.98
2023-01-17T18:12:17.395Z,10.89
2023-01-17T18:14:43.738Z,10.93
2023-01-17T18:17:10.080Z,10.88
2023-01-17T18:19:36.458Z,10.98
2023-01-17T18:22:02.806Z,11.08
2023-01-17T18:24:29.161Z,10.78
2023-01-17T18:26:55.502Z,10.74
2023-01-17T18:29:21.892Z,10.73
2023-01-17T18:31:48.290Z,10.81
2023-01-17T18:34:14.665Z,10.88
2023-01-17T18:36:41.098Z,10.82
2023-01-17T18:39:07.448Z,10.95
2023-01-17T18:41:33.817Z,10.82
2023-01-17T18:44:00.210Z,10.90
2023-01-17T18:46:26.624Z,11.04
2023-01-17T18:48:52.985Z,11.09
2023-01-17T18:51:19.397Z,11.06
2023-01-17T18:53:45.757Z,11.08
2023-01-17T18:56:12.138Z,11.16
2023-01-17T18:58:38.493Z,11.27
2023-01-17T19:01:04.909Z,10.89
2023-01-17T19:03:31.507Z,11.09
2023-01-17T19:05:58.014Z,11.10
2023-01-17T19:08:24.400Z,11.07
2023-01-17T19:10:50.782Z,10.87
2023-01-17T19:13:17.154Z,11.01
2023-01-17T19:15:43.521Z,11.16
2023-01-17T19:18:09.887Z,11.27
2023-01-17T19:20:36.274Z,11.09
2023-01-17T19:23:02.653Z,11.14
2023-01-17T19:25:28.996Z,11.08
2023-01-17T19:27:55.583Z,10.68
2023-01-17T19:30:22.140Z,10.66
2023-01-17T19:32:48.548Z,10.68
2023-01-17T19:35:14.948Z,10.84
2023-01-17T19:37:41.290Z,11.00
2023-01-17T19:40:07.643Z,10.92
2023-01-17T19:42:34.020Z,10.97
2023-01-17T19:45:00.411Z,10.94
2023-01-17T19:47:26.815Z,11.03
2023-01-17T19:49:53.176Z,11.02
2023-01-17T19:52:19.518Z,10.97
2023-01-17T19:54:45.893Z,10.83
2023-01-17T19:57:12.298Z,10.69
2023-01-17T19:59:38.650Z,10.88
2023-01-17T20:02:05.195Z,11.12
2023-01-17T20:04:31.664Z,10.87
2023-01-17T20:06:58.060Z,10.74
2023-01-17T20:09:24.440Z,10.80
2023-01-17T20:11:50.788Z,10.67
2023-01-17T20:14:17.118Z,11.03
2023-01-17T20:16:43.547Z,10.90
2023-01-17T20:19:09.963Z,10.81
2023-01-17T20:21:36.308Z,10.99
2023-01-17T20:24:02.724Z,10.96
2023-01-17T20:26:29.120Z,10.82
2023-01-17T20:28:55.492Z,10.92
2023-01-17T20:31:21.884Z,10.90
2023-01-17T20:33:48.238Z,10.76
2023-01-17T20:36:14.619Z,10.75
2023-01-17T20:38:40.962Z,10.85
2023-01-17T20:41:07.293Z,11.05
2023-01-17T20:43:33.670Z,10.99
2023-01-17T20:46:00.145Z,10.91
2023-01-17T20:48:26.671Z,11.02
2023-01-17T20:50:53.083Z,10.78
2023-01-17T20:53:19.479Z,10.73
2023-01-17T20:55:45.818Z,10.89
2023-01-17T20:58:12.188Z,10.61
2023-01-17T21:00:38.545Z,10.77
2023-01-17T21:03:04.932Z,10.82
2023-01-17T21:05:31.286Z,10.69
2023-01-17T21:07:57.901Z,10.63
2023-01-17T21:10:24.442Z,10.67
2023-01-17T21:12:50.839Z,10.24
2023-01-17T21:15:17.193Z,10.15
2023-01-17T21:17:43.551Z,10.29
2023-01-17T21:20:09.948Z,10.62
2023-01-17T21:22:36.340Z,10.68
2023-01-17T21:25:02.727Z,10.68
2023-01-17T21:27:29.116Z,10.69
2023-01-17T21:29:55.491Z,10.59
2023-01-17T21:32:21.868Z,10.67
2023-01-17T21:34:48.234Z,10.74
2023-01-17T21:37:14.612Z,10.52
2023-01-17T21:39:40.985Z,10.79
2023-01-17T21:42:07.363Z,10.82
2023-01-17T21:44:33.755Z,10.83
2023-01-17T21:47:00.136Z,10.82
2023-01-17T21:49:26.476Z,10.78
2023-01-17T21:51:52.845Z,10.90
2023-01-17T21:54:19.248Z,10.98
2023-01-17T21:56:45.637Z,10.87
2023-01-17T21:59:11.973Z,11.00
2023-01-17T22:01:38.354Z,10.94
2023-01-17T22:04:04.762Z,10.92
2023-01-17T22:06:31.177Z,10.79
2023-01-17T22:08:57.554Z,10.82
2023-01-17T22:11:23.907Z,10.58
2023-01-17T22:13:50.237Z,10.78
2023-01-17T22:16:16.585Z,10.77
2023-01-17T22:18:42.961Z,10.61
2023-01-17T22:21:09.319Z,10.76
2023-01-17T22:23:35.729Z,10.81
2023-01-17T22:26:02.073Z,10.95
2023-01-17T22:28:28.412Z,10.61
2023-01-17T22:30:54.796Z,10.81
2023-01-17T22:33:21.205Z,10.97
2023-01-17T22:35:47.540Z,10.99
2023-01-17T22:38:13.908Z,10.94
2023-01-17T22:40:40.258Z,10.70
2023-01-17T22:43:06.620Z,10.51
2023-01-17T22:45:32.973Z,10.63
2023-01-17T22:47:59.345Z,10.82
2023-01-17T22:50:25.724Z,10.80
2023-01-17T22:52:52.071Z,10.61
2023-01-17T22:55:18.418Z,10.62
2023-01-17T22:57:44.761Z,10.58
2023-01-17T23:00:11.101Z,10.75
2023-01-17T23:02:37.524Z,10.80
2023-01-17T23:05:03.922Z,10.79
2023-01-17T23:07:30.249Z,10.74
2023-01-17T23:09:56.595Z,10.70
2023-01-17T23:12:22.979Z,10.85
2023-01-17T23:14:49.389Z,10.81
2023-01-17T23:17:15.798Z,10.92
2023-01-17T23:19:42.211Z,10.93
2023-01-17T23:22:08.600Z,10.87
2023-01-17T23:24:34.984Z,10.95
2023-01-17T23:27:01.369Z,10.93
2023-01-17T23:29:27.713Z,10.68
2023-01-17T23:31:54.056Z,10.70
2023-01-17T23:34:20.400Z,10.68
2023-01-17T23:36:46.767Z,10.38
2023-01-17T23:39:13.153Z,10.27
2023-01-17T23:41:39.501Z,10.52
2023-01-17T23:44:05.831Z,10.40
2023-01-17T23:46:32.190Z,10.04
2023-01-17T23:48:58.621Z,10.47
2023-01-17T23:51:24.955Z,10.11
2023-01-17T23:53:51.337Z,10.34
2023-01-17T23:56:17.695Z,9.70
2023-01-17T23:58:44.031Z,10.18
